Time;durP1;ratioP1;P1;durP2;ratioP2;P2;SDS_P1;SDS_P2;PMS_P1;PMS_P2;Temp;Humidity;BMP_temperature;BMP_pressure;BME280_temperature;BME280_humidity;BME280_pressure;Samples;Min_cycle;Max_cycle;Signal;HPM_P1;HPM_P2
2024/04/15 00:00:24;;;;;;;73.47;10.07;;;;;;;14.95;100.00;97574.25;5370528;26;19999;-64
2024/04/15 00:02:49;;;;;;;91.82;12.43;;;;;;;14.99;100.00;97575.03;5366133;26;20107;-62
2024/04/15 00:05:14;;;;;;;65.13;10.05;;;;;;;14.81;100.00;97562.41;5370601;26;20000;-63
2024/04/15 00:07:40;;;;;;;72.00;10.23;;;;;;;14.85;100.00;97550.09;5367060;26;20000;-64
2024/04/15 00:10:07;;;;;;;87.32;11.65;;;;;;;15.07;100.00;97552.13;5366557;26;20010;-61
2024/04/15 00:12:33;;;;;;;70.90;10.70;;;;;;;14.73;100.00;97539.94;5364954;26;20392;-59
2024/04/15 00:14:58;;;;;;;90.97;12.02;;;;;;;14.65;100.00;97535.75;5366841;26;20553;-60
2024/04/15 00:17:23;;;;;;;61.25;10.05;;;;;;;14.91;100.00;97525.47;5365672;26;20030;-61
2024/04/15 00:19:51;;;;;;;101.55;13.05;;;;;;;15.04;100.00;97520.75;5367248;26;19996;-61
2024/04/15 00:22:16;;;;;;;69.30;10.63;;;;;;;15.21;100.00;97510.66;5367286;26;20013;-61
2024/04/15 00:24:42;;;;;;;91.75;12.13;;;;;;;15.17;100.00;97506.41;5364489;26;20004;-60
2024/04/15 00:27:07;;;;;;;57.35;10.20;;;;;;;15.22;100.00;97506.28;5367260;26;20447;-61
2024/04/15 00:29:33;;;;;;;76.55;11.93;;;;;;;15.16;100.00;97490.72;5366732;26;20043;-65
2024/04/15 00:31:58;;;;;;;92.97;12.40;;;;;;;15.16;100.00;97473.25;5367980;26;20363;-62
2024/04/15 00:34:24;;;;;;;72.65;11.15;;;;;;;14.49;100.00;97467.28;5367010;26;20010;-58
2024/04/15 00:36:49;;;;;;;71.53;10.70;;;;;;;14.90;100.00;97472.28;5365712;26;20678;-60
2024/04/15 00:39:15;;;;;;;62.17;10.13;;;;;;;14.94;100.00;97479.16;5365499;26;19996;-61
2024/04/15 00:41:40;;;;;;;96.13;12.00;;;;;;;14.84;100.00;97477.69;5362702;26;20026;-61
2024/04/15 00:44:05;;;;;;;78.20;10.45;;;;;;;14.91;100.00;97483.59;5368583;26;20367;-60
2024/04/15 00:46:31;;;;;;;78.07;11.07;;;;;;;14.79;100.00;97469.09;5369459;26;20019;-62
2024/04/15 00:48:58;;;;;;;117.57;13.13;;;;;;;15.18;100.00;97481.91;5371479;26;20404;-62
2024/04/15 00:51:25;;;;;;;65.88;10.88;;;;;;;14.91;100.00;97478.34;5367144;26;20007;-60
2024/04/15 00:53:52;;;;;;;92.22;11.88;;;;;;;14.79;100.00;97471.72;5364172;26;20714;-63
2024/04/15 00:56:20;;;;;;;78.00;10.82;;;;;;;14.92;100.00;97475.69;5367448;26;20004;-61
2024/04/15 00:58:45;;;;;;;76.13;10.73;;;;;;;14.94;100.00;97497.47;5368464;26;19996;-62
2024/04/15 01:01:13;;;;;;;98.90;11.55;;;;;;;14.82;100.00;97472.47;5366849;26;19999;-62
2024/04/15 01:03:38;;;;;;;75.65;9.45;;;;;;;14.26;100.00;97481.00;5367654;26;19999;-62
2024/04/15 01:06:05;;;;;;;77.93;9.88;;;;;;;14.62;100.00;97485.28;5365037;26;20051;-61
2024/04/15 01:08:31;;;;;;;76.15;9.70;;;;;;;14.31;100.00;97474.75;5367474;26;20019;-62
2024/04/15 01:10:56;;;;;;;100.60;11.77;;;;;;;14.30;100.00;97474.78;5365799;26;20524;-61
2024/04/15 01:13:22;;;;;;;71.40;10.20;;;;;;;14.14;100.00;97490.03;5367446;26;20448;-63
2024/04/15 01:15:54;;;;;;;90.50;11.07;;;;;;;14.10;100.00;97501.47;5363022;26;20004;-62
2024/04/15 01:18:19;;;;;;;57.55;9.95;;;;;;;14.21;100.00;97490.72;5370686;26;20367;-62
2024/04/15 01:20:44;;;;;;;67.35;10.77;;;;;;;14.42;100.00;97512.81;5371260;26;20008;-62
2024/04/15 01:23:14;;;;;;;62.72;9.95;;;;;;;14.50;100.00;97541.38;5369803;26;20661;-61
2024/04/15 01:25:39;;;;;;;74.05;11.25;;;;;;;14.31;100.00;97541.88;5368201;26;20634;-59
2024/04/15 01:28:05;;;;;;;75.03;10.18;;;;;;;14.31;100.00;97537.53;5364300;26;20014;-62
2024/04/15 01:30:30;;;;;;;85.18;11.35;;;;;;;14.02;100.00;97526.03;5366486;26;20320;-63
2024/04/15 01:32:57;;;;;;;81.50;10.85;;;;;;;13.90;100.00;97513.25;5368593;26;20577;-62
2024/04/15 01:35:23;;;;;;;77.95;10.32;;;;;;;14.12;100.00;97520.56;5366576;26;20009;-61
2024/04/15 01:37:49;;;;;;;92.75;12.50;;;;;;;14.02;100.00;97499.00;5365818;26;20531;-64
2024/04/15 01:40:15;;;;;;;56.83;10.77;;;;;;;13.83;100.00;97499.47;5365737;26;20018;-61
2024/04/15 01:42:40;;;;;;;72.85;14.88;;;;;;;13.80;100.00;97502.16;5366252;26;20004;-63
2024/04/15 01:45:06;;;;;;;78.47;14.27;;;;;;;13.88;100.00;97508.06;5366241;26;20005;-64
2024/04/15 01:47:33;;;;;;;99.45;13.18;;;;;;;13.90;100.00;97495.84;5365124;26;19997;-61
2024/04/15 01:49:59;;;;;;;77.95;11.50;;;;;;;14.03;100.00;97500.75;5368987;26;20361;-63
2024/04/15 01:52:24;;;;;;;67.53;10.63;;;;;;;14.03;100.00;97496.38;5360482;26;20041;-61
2024/04/15 01:54:49;;;;;;;108.50;13.57;;;;;;;14.06;100.00;97474.50;5363943;26;20716;-64
2024/04/15 01:57:15;;;;;;;62.70;9.95;;;;;;;14.17;100.00;97511.72;5369388;26;19999;-61
2024/04/15 01:59:40;;;;;;;63.25;10.27;;;;;;;14.05;100.00;97514.63;5365614;26;20004;-64
2024/04/15 02:02:05;;;;;;;83.55;11.43;;;;;;;14.07;100.00;97515.47;5363269;26;20543;-62
2024/04/15 02:04:31;;;;;;;76.75;10.88;;;;;;;13.90;100.00;97516.75;5368432;26;20015;-62
2024/04/15 02:06:56;;;;;;;95.60;11.52;;;;;;;13.83;100.00;97512.56;5360861;26;20011;-62
2024/04/15 02:09:22;;;;;;;73.43;11.23;;;;;;;13.90;100.00;97495.84;5363448;26;20024;-61
2024/04/15 02:11:47;;;;;;;93.45;11.65;;;;;;;13.89;100.00;97504.53;5361227;26;20004;-64
2024/04/15 02:14:12;;;;;;;51.10;9.90;;;;;;;14.06;100.00;97492.81;5363663;26;20007;-62
2024/04/15 02:16:38;;;;;;;95.38;12.35;;;;;;;14.03;100.00;97493.75;5365627;26;20011;-63
2024/04/15 02:19:03;;;;;;;105.55;12.80;;;;;;;14.22;100.00;97495.91;5370491;26;20004;-60
2024/04/15 02:21:29;;;;;;;86.45;10.45;;;;;;;14.05;100.00;97491.09;5365362;26;20018;-61
2024/04/15 02:23:54;;;;;;;115.93;13.20;;;;;;;14.05;100.00;97478.03;5360911;26;20007;-61
2024/04/15 02:26:19;;;;;;;66.10;11.05;;;;;;;13.85;100.00;97471.53;5366950;26;20004;-60
2024/04/15 02:28:44;;;;;;;72.90;16.65;;;;;;;13.95;100.00;97459.09;5368942;26;20060;-61
2024/04/15 02:31:10;;;;;;;116.18;14.30;;;;;;;13.89;100.00;97448.81;5363984;26;20004;-61
2024/04/15 02:33:35;;;;;;;80.75;11.93;;;;;;;13.98;100.00;97445.09;5365699;26;19995;-62
2024/04/15 02:36:00;;;;;;;114.53;13.82;;;;;;;13.96;100.00;97439.94;5367476;26;19996;-62
2024/04/15 02:38:26;;;;;;;83.70;11.27;;;;;;;13.86;100.00;97447.13;5367778;26;20010;-62
2024/04/15 02:40:52;;;;;;;104.47;12.45;;;;;;;13.90;100.00;97440.94;5365346;26;20004;-62
2024/04/15 02:43:18;;;;;;;65.80;10.60;;;;;;;13.90;100.00;97433.09;5368785;26;20563;-64
2024/04/15 02:45:43;;;;;;;66.43;10.85;;;;;;;13.95;100.00;97429.50;5365964;26;20008;-62
2024/04/15 02:48:09;;;;;;;64.72;10.82;;;;;;;14.00;100.00;97433.69;5365394;26;20055;-60
2024/04/15 02:50:34;;;;;;;77.65;11.52;;;;;;;14.05;100.00;97421.38;5365538;26;20011;-63
2024/04/15 02:52:59;;;;;;;106.50;13.32;;;;;;;14.01;100.00;97417.13;5361581;26;20010;-61
2024/04/15 02:55:25;;;;;;;78.40;10.25;;;;;;;14.08;100.00;97424.78;5365245;26;20461;-60
2024/04/15 02:57:50;;;;;;;80.43;11.95;;;;;;;14.06;100.00;97417.00;5366783;26;20020;-61
2024/04/15 03:00:16;;;;;;;54.53;10.15;;;;;;;13.90;100.00;97412.19;5364553;26;20027;-61
2024/04/15 03:02:41;;;;;;;87.15;12.30;;;;;;;13.90;100.00;97399.13;5368945;26;20011;-63
2024/04/15 03:05:06;;;;;;;61.80;10.38;;;;;;;13.77;100.00;97405.56;5366551;26;20639;-60
2024/04/15 03:07:32;;;;;;;77.80;11.27;;;;;;;13.83;100.00;97415.84;5368621;26;20014;-62
2024/04/15 03:09:57;;;;;;;117.85;13.93;;;;;;;13.90;100.00;97417.41;5367549;26;20018;-62
2024/04/15 03:12:23;;;;;;;63.03;9.95;;;;;;;13.82;100.00;97428.94;5369135;26;20055;-63
2024/04/15 03:14:49;;;;;;;62.25;10.77;;;;;;;13.80;100.00;97429.84;5369545;26;20083;-60
2024/04/15 03:17:14;;;;;;;85.97;12.32;;;;;;;13.82;100.00;97426.34;5365691;26;20341;-62
2024/04/15 03:19:40;;;;;;;54.72;10.38;;;;;;;14.02;100.00;97431.03;5366763;26;20000;-60
2024/04/15 03:22:05;;;;;;;80.20;11.45;;;;;;;13.97;100.00;97444.25;5366486;26;20019;-61
2024/04/15 03:24:30;;;;;;;70.13;11.82;;;;;;;14.09;100.00;97435.22;5372488;26;20121;-62
2024/04/15 03:26:58;;;;;;;88.05;13.18;;;;;;;13.80;100.00;97422.00;5365544;26;20011;-60
2024/04/15 03:29:23;;;;;;;61.50;10.38;;;;;;;13.69;100.00;97412.72;5369958;26;19996;-60
2024/04/15 03:31:48;;;;;;;98.88;13.10;;;;;;;13.55;100.00;97408.72;5362060;26;19995;-63
2024/04/15 03:34:14;;;;;;;59.75;9.50;;;;;;;13.40;100.00;97422.97;5368253;26;20028;-61
2024/04/15 03:36:39;;;;;;;55.42;10.65;;;;;;;13.35;100.00;97414.38;5368140;26;20003;-63
2024/04/15 03:39:04;;;;;;;95.28;13.48;;;;;;;13.30;100.00;97401.44;5367738;26;20016;-62
2024/04/15 03:41:30;;;;;;;60.45;11.00;;;;;;;13.37;100.00;97408.22;5368462;26;20010;-61
2024/04/15 03:43:55;;;;;;;101.22;12.52;;;;;;;13.13;100.00;97387.03;5364586;26;20342;-60
2024/04/15 03:46:21;;;;;;;67.57;10.57;;;;;;;13.34;100.00;97386.53;5370197;26;20012;-59
2024/04/15 03:48:46;;;;;;;51.72;10.38;;;;;;;13.64;100.00;97387.56;5372196;26;20345;-63
2024/04/15 03:51:11;;;;;;;64.00;11.45;;;;;;;13.53;100.00;97371.31;5365287;26;20450;-61
2024/04/15 03:53:37;;;;;;;57.75;10.13;;;;;;;13.84;100.00;97390.56;5368648;26;20000;-60
2024/04/15 03:56:02;;;;;;;95.65;13.52;;;;;;;13.78;100.00;97387.19;5362519;26;20000;-61
2024/04/15 03:58:27;;;;;;;59.17;11.02;;;;;;;13.65;100.00;97384.06;5367981;26;19996;-61
2024/04/15 04:00:59;;;;;;;67.63;10.63;;;;;;;13.61;100.00;97371.09;5364834;26;20004;-60
2024/04/15 04:03:25;;;;;;;71.88;11.15;;;;;;;13.61;100.00;97368.50;5365120;26;20429;-59
2024/04/15 04:05:54;;;;;;;48.72;9.88;;;;;;;13.26;100.00;97365.84;5364610;26;20621;-60
2024/04/15 04:08:19;;;;;;;72.20;11.02;;;;;;;13.21;100.00;97372.94;5367684;26;20000;-63
2024/04/15 04:10:45;;;;;;;69.80;10.82;;;;;;;13.51;100.00;97399.25;5370471;26;20018;-64
2024/04/15 04:13:10;;;;;;;57.42;10.48;;;;;;;13.37;100.00;97395.16;5367385;26;20011;-63
2024/04/15 04:15:37;;;;;;;66.90;10.85;;;;;;;13.63;100.00;97400.69;5367597;26;20030;-62
2024/04/15 04:18:04;;;;;;;99.40;13.57;;;;;;;13.60;100.00;97385.06;5366767;26;20112;-61
2024/04/15 04:20:30;;;;;;;55.80;10.23;;;;;;;13.45;100.00;97394.13;5372205;26;20376;-59
2024/04/15 04:22:55;;;;;;;85.63;11.80;;;;;;;13.64;100.00;97405.88;5360705;26;20505;-61
2024/04/15 04:25:21;;;;;;;62.92;10.20;;;;;;;13.55;100.00;97400.88;5366149;26;20150;-60
2024/04/15 04:27:46;;;;;;;61.92;10.13;;;;;;;13.55;100.00;97400.88;5368952;26;19999;-65
2024/04/15 04:30:12;;;;;;;56.65;9.93;;;;;;;13.70;100.00;97398.75;5368780;26;20561;-60
2024/04/15 04:32:37;;;;;;;82.78;11.02;;;;;;;13.45;100.00;97379.31;5369675;26;20004;-62
2024/04/15 04:35:03;;;;;;;89.63;11.90;;;;;;;13.52;100.00;97380.88;5364123;26;20015;-61
2024/04/15 04:37:28;;;;;;;60.92;10.30;;;;;;;13.60;100.00;97396.38;5364856;26;20516;-64
2024/04/15 04:39:54;;;;;;;85.85;11.40;;;;;;;13.60;100.00;97399.00;5360576;26;20055;-59
2024/04/15 04:42:19;;;;;;;47.35;9.95;;;;;;;13.63;100.00;97404.13;5363919;26;20008;-62
2024/04/15 04:44:44;;;;;;;47.50;9.38;;;;;;;13.43;100.00;97396.75;5369847;26;20008;-60
2024/04/15 04:47:10;;;;;;;96.65;12.68;;;;;;;13.30;100.00;97385.75;5366536;26;20000;-59
2024/04/15 04:49:35;;;;;;;64.78;9.65;;;;;;;13.35;100.00;97370.84;5368068;26;20000;-64
2024/04/15 04:52:00;;;;;;;101.28;13.13;;;;;;;12.96;100.00;97365.66;5364124;26;20471;-62
2024/04/15 04:54:25;;;;;;;73.60;10.77;;;;;;;13.26;100.00;97365.84;5364768;26;20426;-60
2024/04/15 04:56:52;;;;;;;51.28;9.43;;;;;;;13.40;100.00;97365.50;5366578;26;20008;-59
2024/04/15 04:59:17;;;;;;;62.28;9.55;;;;;;;13.27;100.00;97371.03;5363848;26;20008;-62
2024/04/15 05:01:43;;;;;;;95.20;12.95;;;;;;;13.43;100.00;97354.13;5366145;26;20011;-62
2024/04/15 05:04:10;;;;;;;81.57;11.93;;;;;;;13.51;100.00;97360.06;5368821;26;20286;-60
2024/04/15 05:06:36;;;;;;;49.78;9.30;;;;;;;13.56;100.00;97360.78;5367602;26;20085;-63
2024/04/15 05:09:02;;;;;;;97.85;12.80;;;;;;;13.38;100.00;97367.28;5364393;26;20782;-60
2024/04/15 05:11:28;;;;;;;61.38;10.80;;;;;;;13.51;100.00;97375.72;5368553;26;20008;-59
2024/04/15 05:13:54;;;;;;;54.72;9.52;;;;;;;13.75;100.00;97382.06;5361071;26;20000;-60
2024/04/15 05:16:19;;;;;;;56.80;10.32;;;;;;;13.92;100.00;97388.63;5361512;26;20593;-62
2024/04/15 05:18:45;;;;;;;59.10;9.82;;;;;;;13.65;100.00;97385.81;5360808;26;20015;-59
2024/04/15 05:21:17;;;;;;;107.95;13.57;;;;;;;13.82;100.00;97392.34;5363296;26;20520;-63
2024/04/15 05:23:42;;;;;;;;;;;;;;;13.83;100.00;97404.53;5364525;26;20566;-62
2024/04/15 05:26:08;;;;;;;92.35;12.00;;;;;;;14.08;100.00;97409.97;5379282;26;19933;-60
2024/04/15 05:28:33;;;;;;;63.97;10.43;;;;;;;14.13;100.00;97408.09;5364812;26;20444;-61
2024/04/15 05:30:59;;;;;;;111.63;14.25;;;;;;;13.78;100.00;97405.50;5363695;26;19996;-60
2024/04/15 05:33:24;;;;;;;70.60;10.77;;;;;;;13.98;100.00;97403.25;5367023;26;19996;-60
2024/04/15 05:35:50;;;;;;;59.50;10.13;;;;;;;14.02;100.00;97407.50;5369120;26;19992;-60
2024/04/15 05:38:16;;;;;;;60.33;9.77;;;;;;;13.88;100.00;97416.56;5365065;26;20043;-64
2024/04/15 05:40:42;;;;;;;70.63;9.65;;;;;;;13.92;100.00;97423.44;5364060;26;20035;-63
2024/04/15 05:43:09;;;;;;;88.05;11.57;;;;;;;14.05;100.00;97428.34;5368433;26;20007;-62
2024/04/15 05:45:35;;;;;;;61.72;10.02;;;;;;;13.70;100.00;97420.53;5364722;26;20014;-63
2024/04/15 05:48:01;;;;;;;100.97;12.45;;;;;;;13.74;100.00;97416.91;5364437;26;19992;-62
2024/04/15 05:50:26;;;;;;;66.82;9.90;;;;;;;14.01;100.00;97419.75;5363419;26;19996;-59
2024/04/15 05:52:51;;;;;;;64.68;10.10;;;;;;;14.35;100.00;97423.19;5358905;26;20018;-58
2024/04/15 05:55:17;;;;;;;77.72;10.75;;;;;;;14.03;100.00;97428.38;5363392;26;19996;-62
2024/04/15 05:57:43;;;;;;;48.90;8.68;;;;;;;14.39;100.00;97437.03;5365168;26;19996;-63
2024/04/15 06:00:08;;;;;;;83.85;11.05;;;;;;;14.54;100.00;97427.91;5363301;26;20502;-63
2024/04/15 06:02:34;;;;;;;54.42;9.02;;;;;;;14.41;100.00;97423.00;5365876;26;20686;-59
2024/04/15 06:04:59;;;;;;;75.80;10.60;;;;;;;14.34;100.00;97431.94;5362416;26;19995;-59
2024/04/15 06:07:24;;;;;;;50.58;8.93;;;;;;;14.65;100.00;97431.06;5366168;26;19992;-59
2024/04/15 06:09:50;;;;;;;61.83;9.05;;;;;;;14.56;100.00;97440.03;5361430;26;20385;-60
2024/04/15 06:12:16;;;;;;;88.70;12.00;;;;;;;15.39;100.00;97444.63;5362246;26;19996;-60
2024/04/15 06:14:41;;;;;;;57.42;9.18;;;;;;;15.43;100.00;97443.63;5362996;26;19996;-60
2024/04/15 06:17:07;;;;;;;76.93;10.50;;;;;;;15.79;100.00;97447.72;5361248;26;19996;-64
2024/04/15 06:19:33;;;;;;;67.28;9.93;;;;;;;15.43;100.00;97449.72;5362145;26;20008;-60
2024/04/15 06:22:00;;;;;;;67.97;10.63;;;;;;;15.57;100.00;97445.81;5359517;26;20445;-60
2024/04/15 06:24:26;;;;;;;53.05;9.48;;;;;;;16.37;100.00;97436.16;5368455;26;19999;-59
2024/04/15 06:26:51;;;;;;;65.18;10.50;;;;;;;17.81;100.00;97427.16;5364352;26;20011;-61
2024/04/15 06:29:17;;;;;;;70.57;10.73;;;;;;;20.14;100.00;97416.56;5366185;26;20290;-58
2024/04/15 06:31:42;;;;;;;58.58;9.38;;;;;;;18.60;100.00;97416.81;5371789;26;20410;-60
2024/04/15 06:34:08;;;;;;;77.40;10.73;;;;;;;17.98;100.00;97416.84;5363984;26;20186;-60
2024/04/15 06:36:34;;;;;;;51.92;9.38;;;;;;;18.12;100.00;97414.53;5366921;26;20003;-62
2024/04/15 06:38:59;;;;;;;63.08;9.88;;;;;;;19.08;100.00;97421.72;5363094;26;19997;-58
2024/04/15 06:41:24;;;;;;;61.60;10.18;;;;;;;18.80;100.00;97430.84;5364668;26;20007;-61
2024/04/15 06:43:50;;;;;;;47.15;10.05;;;;;;;17.83;100.00;97429.75;5365187;26;20007;-61
2024/04/15 06:46:15;;;;;;;59.55;10.23;;;;;;;17.88;100.00;97434.78;5365394;26;20014;-59
2024/04/15 06:48:43;;;;;;;68.88;11.43;;;;;;;17.87;100.00;97430.44;5366668;26;20000;-60
2024/04/15 06:51:09;;;;;;;91.60;13.48;;;;;;;17.48;100.00;97440.78;5364204;26;20083;-63
2024/04/15 06:53:35;;;;;;;50.28;10.38;;;;;;;17.56;100.00;97448.38;5366467;26;20000;-61
2024/04/15 06:56:01;;;;;;;73.60;11.70;;;;;;;17.21;100.00;97448.84;5365160;26;20031;-60
2024/04/15 06:58:29;;;;;;;44.33;9.20;;;;;;;17.18;100.00;97448.97;5371392;26;20477;-61
2024/04/15 07:00:56;;;;;;;51.90;9.55;;;;;;;17.33;100.00;97452.75;5367611;26;20443;-59
2024/04/15 07:03:22;;;;;;;64.75;11.70;;;;;;;17.11;100.00;97453.59;5365290;26;20014;-60
2024/04/15 07:05:47;;;;;;;47.28;9.65;;;;;;;17.42;100.00;97451.56;5367085;26;20456;-63
2024/04/15 07:08:12;;;;;;;58.05;10.48;;;;;;;16.93;100.00;97452.50;5364397;26;19996;-59
2024/04/15 07:10:38;;;;;;;62.95;11.45;;;;;;;17.42;100.00;97443.66;5367017;26;20462;-63
2024/04/15 07:13:03;;;;;;;57.70;11.13;;;;;;;17.15;100.00;97446.47;5365626;26;20260;-62
2024/04/15 07:15:28;;;;;;;54.58;10.98;;;;;;;17.13;100.00;97445.66;5363002;26;20474;-59
2024/04/15 07:17:54;;;;;;;61.35;11.63;;;;;;;16.59;100.00;97445.91;5366902;26;20000;-62
2024/04/15 07:20:19;;;;;;;89.97;13.18;;;;;;;16.73;100.00;97443.59;5366651;26;20037;-59
2024/04/15 07:22:44;;;;;;;46.92;10.93;;;;;;;16.27;100.00;97425.97;5369204;26;20000;-62
2024/04/15 07:25:10;;;;;;;77.57;12.93;;;;;;;16.78;100.00;97430.31;5361742;26;20011;-62
2024/04/15 07:27:39;;;;;;;70.55;11.95;;;;;;;16.86;100.00;97432.63;5365143;26;20004;-62
2024/04/15 07:30:05;;;;;;;65.18;11.45;;;;;;;17.04;100.00;97429.34;5364438;26;20295;-63
2024/04/15 07:32:31;;;;;;;64.68;11.15;;;;;;;17.22;100.00;97419.00;5366902;26;20435;-63
2024/04/15 07:34:57;;;;;;;64.68;11.60;;;;;;;17.93;100.00;97419.69;5372263;26;20511;-61
2024/04/15 07:37:22;;;;;;;53.88;10.05;;;;;;;17.57;100.00;97418.53;5367298;26;20006;-61
2024/04/15 07:39:48;;;;;;;41.17;9.68;;;;;;;18.42;100.00;97422.00;5364898;26;19997;-59
2024/04/15 07:42:14;;;;;;;93.97;14.20;;;;;;;17.78;100.00;97415.94;5362757;26;20566;-60
2024/04/15 07:44:39;;;;;;;52.88;10.73;;;;;;;18.39;100.00;97416.88;5369931;26;20015;-60
2024/04/15 07:47:05;;;;;;;52.97;10.57;;;;;;;18.71;100.00;97427.72;5364639;26;20492;-62
2024/04/15 07:49:30;;;;;;;80.18;11.60;;;;;;;18.44;100.00;97430.66;5366282;26;19996;-61
2024/04/15 07:51:56;;;;;;;61.90;11.02;;;;;;;17.10;100.00;97423.00;5364543;26;19992;-59
2024/04/15 07:54:22;;;;;;;79.28;12.13;;;;;;;16.66;100.00;97421.09;5367947;26;20000;-62
2024/04/15 07:56:47;;;;;;;56.65;10.93;;;;;;;16.64;100.00;97434.28;5368343;26;20004;-61
2024/04/15 07:59:13;;;;;;;72.32;12.27;;;;;;;16.96;100.00;97444.50;5366130;26;20763;-63
2024/04/15 08:01:39;;;;;;;67.13;11.48;;;;;;;17.39;100.00;97446.41;5365485;26;19999;-59
2024/04/15 08:04:04;;;;;;;69.05;12.00;;;;;;;17.11;100.00;97456.22;5361254;26;20011;-62
2024/04/15 08:06:29;;;;;;;45.67;10.27;;;;;;;16.88;100.00;97452.69;5369364;26;19995;-64
2024/04/15 08:08:55;;;;;;;54.03;10.85;;;;;;;16.51;100.00;97456.66;5365765;26;20003;-62
2024/04/15 08:11:20;;;;;;;102.05;14.45;;;;;;;16.53;100.00;97453.06;5359740;26;20328;-63
2024/04/15 08:13:45;;;;;;;49.17;10.35;;;;;;;16.29;100.00;97451.34;5372631;26;20079;-61
2024/04/15 08:16:11;;;;;;;75.75;12.38;;;;;;;16.69;100.00;97449.88;5367172;26;19999;-61
2024/04/15 08:18:37;;;;;;;68.40;11.98;;;;;;;17.29;100.00;97449.41;5366127;26;20430;-60
2024/04/15 08:21:02;;;;;;;75.32;12.27;;;;;;;17.54;100.00;97444.94;5363238;26;19991;-61
2024/04/15 08:23:28;;;;;;;49.83;10.65;;;;;;;17.30;100.00;97437.97;5362797;26;20384;-61
2024/04/15 08:25:55;;;;;;;58.47;11.05;;;;;;;17.82;100.00;97433.28;5351408;26;19995;-60
2024/04/15 08:28:21;;;;;;;67.85;12.30;;;;;;;18.11;100.00;97443.53;5365825;26;20550;-61
2024/04/15 08:30:46;;;;;;;36.50;10.20;;;;;;;17.51;100.00;97445.91;5366031;26;20003;-62
2024/04/15 08:33:13;;;;;;;77.38;12.57;;;;;;;17.50;100.00;97453.84;5365110;26;20061;-63
2024/04/15 08:35:39;;;;;;;56.47;10.93;;;;;;;17.31;100.00;97451.97;5366195;26;19997;-62
2024/04/15 08:38:04;;;;;;;57.05;10.68;;;;;;;17.37;100.00;97446.47;5365761;26;20103;-62
2024/04/15 08:40:29;;;;;;;57.45;10.77;;;;;;;17.71;100.00;97452.16;5366019;26;20010;-61
2024/04/15 08:42:55;;;;;;;57.90;10.98;;;;;;;17.31;100.00;97450.19;5365081;26;20005;-61
2024/04/15 08:45:23;;;;;;;86.78;12.85;;;;;;;17.69;100.00;97459.22;5364547;26;20438;-60
2024/04/15 08:47:53;;;;;;;43.85;10.05;;;;;;;18.08;100.00;97458.50;5367197;26;20011;-60
2024/04/15 08:50:20;;;;;;;70.47;12.40;;;;;;;17.46;100.00;97457.53;5362060;26;20016;-62
2024/04/15 08:52:48;;;;;;;49.05;11.05;;;;;;;16.69;100.00;97455.13;5364255;26;20074;-59
2024/04/15 08:55:14;;;;;;;66.70;12.07;;;;;;;17.67;100.00;97446.13;5361126;26;20707;-61
2024/04/15 08:57:39;;;;;;;58.65;11.45;;;;;;;18.06;100.00;97449.81;5365241;26;21089;-60
2024/04/15 09:00:06;;;;;;;47.10;10.73;;;;;;;17.55;100.00;97447.50;5364874;26;20464;-63
2024/04/15 09:02:31;;;;;;;62.08;12.25;;;;;;;18.03;100.00;97434.16;5364546;26;20004;-59
2024/04/15 09:04:57;;;;;;;69.18;12.75;;;;;;;17.29;100.00;97436.25;5366409;26;20015;-64
2024/04/15 09:07:23;;;;;;;84.78;13.38;;;;;;;16.86;100.00;97435.28;5360411;26;20051;-62
2024/04/15 09:09:49;;;;;;;56.08;11.93;;;;;;;17.25;100.00;97418.03;5366368;26;20444;-63
2024/04/15 09:12:14;;;;;;;87.68;13.02;;;;;;;17.95;100.00;97407.31;5362952;26;20028;-59
2024/04/15 09:14:39;;;;;;;44.17;11.15;;;;;;;17.87;100.00;97401.53;5367387;26;20026;-61
2024/04/15 09:17:05;;;;;;;58.15;11.52;;;;;;;17.91;100.00;97397.84;5366582;26;20063;-59
2024/04/15 09:19:32;;;;;;;72.00;12.48;;;;;;;17.78;100.00;97392.25;5367194;26;20340;-60
2024/04/15 09:22:01;;;;;;;55.90;11.75;;;;;;;17.80;100.00;97387.78;5366829;26;20277;-63
2024/04/15 09:24:26;;;;;;;87.95;13.75;;;;;;;17.56;100.00;97386.09;5362574;26;20354;-59
2024/04/15 09:26:52;;;;;;;55.70;11.25;;;;;;;17.90;100.00;97389.13;5363519;26;20180;-59
2024/04/15 09:29:17;;;;;;;69.65;11.90;;;;;;;17.18;100.00;97381.50;5366747;26;20000;-64
2024/04/15 09:31:43;;;;;;;65.32;11.77;;;;;;;17.34;100.00;97374.78;5362124;26;20008;-59
2024/04/15 09:34:09;;;;;;;72.32;12.27;;;;;;;17.39;100.00;97367.56;5365120;26;20000;-61
2024/04/15 09:36:41;;;;;;;59.15;11.50;;;;;;;17.08;100.00;97363.53;5364614;26;20019;-61
2024/04/15 09:39:07;;;;;;;68.43;12.80;;;;;;;17.12;100.00;97357.25;5366232;26;20000;-61
2024/04/15 09:41:34;;;;;;;61.15;11.95;;;;;;;18.20;100.00;97343.13;5360116;26;20012;-59
2024/04/15 09:44:00;;;;;;;52.63;13.77;;;;;;;17.83;100.00;97335.06;5366668;26;20111;-62
2024/04/15 09:46:31;;;;;;;80.57;12.73;;;;;;;18.93;100.00;97342.41;5361644;26;20604;-62
2024/04/15 09:48:57;;;;;;;55.28;9.35;;;;;;;17.21;100.00;97343.75;5367406;26;20510;-61
2024/04/15 09:51:23;;;;;;;85.03;12.52;;;;;;;18.15;100.00;97335.44;5366715;26;20004;-60
2024/04/15 09:53:53;;;;;;;60.10;10.40;;;;;;;20.60;100.00;97336.69;5362439;26;20004;-59
2024/04/15 09:56:25;;;;;;;82.43;11.40;;;;;;;22.19;100.00;97326.81;5364695;26;20000;-59
2024/04/15 09:58:55;;;;;;;43.60;8.38;;;;;;;22.40;99.25;97324.59;5360334;26;20007;-61
2024/04/15 10:01:25;;;;;;;74.95;10.88;;;;;;;20.73;100.00;97314.88;5365894;26;20220;-63
2024/04/15 10:03:52;;;;;;;38.47;8.18;;;;;;;19.77;100.00;97316.38;5382467;26;20365;-59
2024/04/15 10:06:48;;;;;;;72.68;10.23;;;;;;;17.80;100.00;97315.00;5365929;26;20019;-61
2024/04/15 10:09:17;;;;;;;47.70;8.45;;;;;;;20.74;100.00;97304.22;5362292;26;20142;-61
2024/04/15 10:11:44;;;;;;;52.20;9.43;;;;;;;21.32;100.00;97303.66;5362585;26;20043;-61
2024/04/15 10:14:11;;;;;;;47.85;9.52;;;;;;;21.93;95.04;97287.72;5365022;26;20001;-62
2024/04/15 10:16:37;;;;;;;43.15;8.05;;;;;;;22.28;95.00;97288.28;5363094;26;20511;-62
2024/04/15 10:19:02;;;;;;;53.22;8.60;;;;;;;23.55;75.71;97271.31;5362735;26;20015;-63
2024/04/15 10:21:29;;;;;;;68.18;9.55;;;;;;;25.21;66.14;97257.91;5363831;26;20125;-60
2024/04/15 10:23:55;;;;;;;48.92;17.95;;;;;;;22.68;67.44;97264.56;5364485;26;20338;-60
2024/04/15 10:26:23;;;;;;;82.38;14.48;;;;;;;23.25;69.89;97262.66;5364453;26;20339;-63
2024/04/15 10:28:49;;;;;;;25.23;7.35;;;;;;;24.16;70.88;97269.88;5363104;26;20239;-64
2024/04/15 10:31:15;;;;;;;46.20;9.20;;;;;;;25.32;60.24;97257.94;5361713;26;20281;-60
2024/04/15 10:33:51;;;;;;;47.35;9.38;;;;;;;24.78;55.78;97256.59;5367308;26;20349;-62
2024/04/15 10:36:16;;;;;;;50.05;9.77;;;;;;;23.58;60.60;97257.00;5364161;26;20562;-59
2024/04/15 10:38:48;;;;;;;53.67;9.45;;;;;;;21.83;86.67;97260.97;5364742;26;19999;-60
2024/04/15 10:41:20;;;;;;;65.22;10.25;;;;;;;23.62;62.00;97253.16;5363382;26;19995;-62
2024/04/15 10:43:46;;;;;;;40.88;9.43;;;;;;;26.65;55.95;97247.75;5367020;26;20073;-61
2024/04/15 10:46:15;;;;;;;57.13;9.80;;;;;;;25.53;55.67;97246.63;5365701;26;20004;-63
2024/04/15 10:48:41;;;;;;;45.50;9.80;;;;;;;23.96;68.53;97244.66;5364584;26;20080;-61
2024/04/15 10:51:06;;;;;;;98.03;47.58;;;;;;;22.46;73.59;97233.31;5364323;26;20715;-62
2024/04/15 10:53:32;;;;;;;55.05;10.00;;;;;;;22.95;78.71;97223.13;5361725;26;21977;-59
2024/04/15 10:55:57;;;;;;;45.92;8.73;;;;;;;23.67;74.48;97224.50;5363515;26;20008;-62
2024/04/15 10:58:23;;;;;;;71.30;11.68;;;;;;;22.94;68.77;97209.00;5362858;26;20014;-62
2024/04/15 11:00:48;;;;;;;60.75;9.98;;;;;;;22.38;70.40;97223.19;5366972;26;20000;-60
2024/04/15 11:03:14;;;;;;;48.45;9.48;;;;;;;22.17;85.61;97212.16;5361964;26;20012;-61
2024/04/15 11:05:39;;;;;;;49.78;9.43;;;;;;;21.92;81.19;97214.56;5366971;26;19997;-62